Time;durP1;ratioP1;P1;durP2;ratioP2;P2;SDS_P1;SDS_P2;PMS_P1;PMS_P2;Temp;Humidity;BMP_temperature;BMP_pressure;BME280_temperature;BME280_humidity;BME280_pressure;Samples;Min_cycle;Max_cycle;Signal;HPM_P1;HPM_P2
2023/03/03 00:00:48;;;;;;;0.50;0.50;;;;;;;1.37;73.94;101166.50;5025402;28;20022;-69
2023/03/03 00:03:23;;;;;;;5.32;4.93;;;;;;;1.32;73.74;101152.66;5025440;28;20057;-68
2023/03/03 00:05:49;;;;;;;0.50;0.50;;;;;;;1.30;73.55;101142.34;5025251;28;20018;-69
2023/03/03 00:08:15;;;;;;;0.50;0.50;;;;;;;1.26;73.50;101145.59;5025193;28;20105;-68
2023/03/03 00:10:40;;;;;;;0.50;0.50;;;;;;;1.20;73.35;101142.75;5025107;28;20076;-68
2023/03/03 00:13:24;;;;;;;0.50;0.50;;;;;;;1.13;73.74;101141.66;5024001;28;20021;-69
2023/03/03 00:15:50;;;;;;;0.50;0.50;;;;;;;1.10;73.49;101144.94;5025447;28;20049;-69
2023/03/03 00:18:24;;;;;;;0.60;0.60;;;;;;;1.14;73.33;101139.94;5025057;28;20072;-70
2023/03/03 00:20:55;;;;;;;0.70;0.70;;;;;;;1.13;73.84;101136.53;5023917;28;20026;-69
2023/03/03 00:23:34;;;;;;;0.70;0.70;;;;;;;1.15;73.38;101140.00;5023696;28;20148;-68
2023/03/03 00:26:00;;;;;;;0.50;0.50;;;;;;;1.18;73.25;101132.47;5024939;28;20270;-67
2023/03/03 00:28:38;;;;;;;0.50;0.50;;;;;;;1.20;73.47;101128.28;5024898;28;20112;-68
2023/03/03 00:31:15;;;;;;;0.47;0.47;;;;;;;1.23;73.67;101135.25;5025129;28;20030;-67
2023/03/03 00:33:53;;;;;;;1.05;1.05;;;;;;;1.26;73.36;101135.38;5023506;28;20021;-68
2023/03/03 00:36:40;;;;;;;0.50;0.50;;;;;;;1.27;73.34;101133.66;5025163;28;20049;-67
2023/03/03 00:39:20;;;;;;;0.50;0.50;;;;;;;1.30;73.15;101139.78;5024172;28;20149;-68
2023/03/03 00:41:46;;;;;;;0.50;0.50;;;;;;;1.32;72.78;101140.72;5024641;28;20033;-68
2023/03/03 00:44:32;;;;;;;0.57;0.57;;;;;;;1.34;72.60;101140.81;5024928;28;20107;-68
2023/03/03 00:47:16;;;;;;;0.60;0.60;;;;;;;1.28;72.70;101136.28;5024690;28;20025;-68
2023/03/03 00:49:42;;;;;;;0.60;0.60;;;;;;;1.28;72.59;101146.50;5024554;28;20097;-68
2023/03/03 00:52:16;;;;;;;0.60;0.60;;;;;;;1.26;72.59;101152.38;5024766;28;20021;-68
2023/03/03 00:54:42;;;;;;;0.50;0.50;;;;;;;1.24;72.63;101142.09;5024468;28;20044;-67
2023/03/03 00:57:07;;;;;;;0.57;0.57;;;;;;;1.16;72.72;101149.44;5024836;28;20053;-68
2023/03/03 00:59:33;;;;;;;0.60;0.60;;;;;;;1.10;73.31;101147.50;5024542;28;20030;-68
2023/03/03 01:01:58;;;;;;;0.60;0.60;;;;;;;1.17;72.82;101171.66;5024410;28;20036;-67
2023/03/03 01:04:23;;;;;;;0.55;0.55;;;;;;;1.21;72.85;101163.31;5024475;28;20109;-68
2023/03/03 01:06:49;;;;;;;0.50;0.50;;;;;;;1.25;72.82;101166.84;5024469;28;20025;-67
2023/03/03 01:09:14;;;;;;;0.40;0.40;;;;;;;1.22;72.69;101161.59;5024193;28;20018;-68
2023/03/03 01:11:40;;;;;;;0.60;0.60;;;;;;;1.22;72.46;101165.06;5024405;28;20030;-69
2023/03/03 01:14:06;;;;;;;0.50;0.50;;;;;;;1.26;72.31;101165.19;5024347;28;20034;-68
2023/03/03 01:16:33;;;;;;;0.50;0.50;;;;;;;1.20;72.44;101159.00;5024419;28;20049;-70
2023/03/03 01:18:58;;;;;;;0.52;0.52;;;;;;;1.25;72.16;101164.28;5024186;28;20021;-67
2023/03/03 01:21:23;;;;;;;0.50;0.50;;;;;;;1.25;72.40;101166.84;5024358;28;20452;-68
2023/03/03 01:23:49;;;;;;;0.60;0.60;;;;;;;1.20;72.31;101147.88;5024481;28;20034;-67
2023/03/03 01:26:14;;;;;;;0.50;0.50;;;;;;;1.22;72.34;101156.50;5023989;28;20121;-68
2023/03/03 01:28:40;;;;;;;0.50;0.50;;;;;;;1.23;72.42;101140.34;5024156;28;20022;-68
2023/03/03 01:31:05;;;;;;;0.60;0.60;;;;;;;1.27;72.43;101141.34;5023049;28;20053;-67
2023/03/03 01:33:35;;;;;;;0.60;0.60;;;;;;;1.27;72.91;101131.97;5024790;28;20018;-68
2023/03/03 01:36:00;;;;;;;0.50;0.50;;;;;;;1.28;74.39;101138.00;5024528;28;20033;-68
2023/03/03 01:38:27;;;;;;;0.50;0.50;;;;;;;1.34;74.00;101135.69;5024114;28;20302;-68
2023/03/03 01:40:54;;;;;;;0.50;0.50;;;;;;;1.39;73.26;101144.41;5022624;28;20033;-68
2023/03/03 01:43:20;;;;;;;0.50;0.50;;;;;;;1.39;72.74;101149.50;5024106;28;20038;-68
2023/03/03 01:45:48;;;;;;;0.47;0.47;;;;;;;1.35;72.47;101161.34;5024373;28;20087;-67
2023/03/03 01:48:27;;;;;;;0.50;0.50;;;;;;;1.28;72.54;101154.19;5022726;28;20025;-68
2023/03/03 01:51:04;;;;;;;0.50;0.50;;;;;;;1.23;72.38;101148.03;5024111;28;20412;-68
2023/03/03 01:53:35;;;;;;;0.50;0.50;;;;;;;1.19;72.42;101143.56;5028346;28;20425;-68
2023/03/03 01:56:04;;;;;;;0.70;0.70;;;;;;;1.12;72.46;101147.56;5027808;28;20049;-68
2023/03/03 01:58:35;;;;;;;0.50;0.50;;;;;;;1.07;72.44;101147.34;5027840;28;20028;-68
2023/03/03 02:01:08;;;;;;;0.50;0.50;;;;;;;1.00;72.31;101140.25;5027939;28;20026;-68
2023/03/03 02:03:34;;;;;;;0.50;0.50;;;;;;;0.94;72.24;101140.84;5027661;28;20025;-67
2023/03/03 02:06:04;;;;;;;0.52;0.52;;;;;;;0.91;72.32;101147.53;5027848;28;20082;-68
2023/03/03 02:08:44;;;;;;;0.60;0.60;;;;;;;0.85;72.10;101143.88;5027561;28;20026;-69
2023/03/03 02:11:10;;;;;;;0.60;0.60;;;;;;;0.83;72.14;101129.31;5027710;28;20134;-69
2023/03/03 02:13:35;;;;;;;0.52;0.52;;;;;;;0.77;71.99;101121.38;5027835;28;20021;-67
2023/03/03 02:16:01;;;;;;;0.60;0.60;;;;;;;0.80;71.94;101139.41;5027525;28;20036;-67
2023/03/03 02:18:27;;;;;;;0.50;0.50;;;;;;;0.81;72.01;101148.81;5027333;28;20417;-69
2023/03/03 02:20:53;;;;;;;0.60;0.60;;;;;;;0.81;72.07;101147.13;5027564;28;20113;-67
2023/03/03 02:23:25;;;;;;;0.50;0.50;;;;;;;0.75;72.52;101144.31;5025882;28;20373;-67
2023/03/03 02:26:01;;;;;;;0.60;0.60;;;;;;;0.70;73.07;101145.78;5025839;28;20033;-68
2023/03/03 02:28:29;;;;;;;2.30;2.17;;;;;;;0.61;74.33;101159.00;5027272;28;20034;-68
2023/03/03 02:30:56;;;;;;;0.60;0.60;;;;;;;0.57;74.19;101152.91;5027188;28;20022;-68
2023/03/03 02:33:22;;;;;;;0.60;0.60;;;;;;;0.48;73.39;101152.47;5027182;28;20036;-68
2023/03/03 02:35:48;;;;;;;0.40;0.40;;;;;;;0.43;73.38;101156.50;5027140;28;20093;-67
2023/03/03 02:38:39;;;;;;;0.57;0.57;;;;;;;0.37;74.13;101157.09;5027065;28;20018;-67
2023/03/03 02:41:16;;;;;;;0.50;0.50;;;;;;;0.36;74.48;101156.25;5026905;28;20022;-68
2023/03/03 02:44:00;;;;;;;0.50;0.50;;;;;;;0.35;74.33;101148.50;5027005;28;20026;-68
2023/03/03 02:46:30;;;;;;;0.52;0.52;;;;;;;0.33;73.93;101145.00;5027135;28;20051;-68
2023/03/03 02:48:56;;;;;;;0.50;0.50;;;;;;;0.26;73.83;101140.44;5026679;28;20076;-68
2023/03/03 02:51:21;;;;;;;0.60;0.60;;;;;;;0.30;73.17;101144.84;5026827;28;20026;-68
2023/03/03 02:53:47;;;;;;;1.58;1.58;;;;;;;0.32;72.96;101138.16;5026592;28;20422;-68
2023/03/03 02:56:12;;;;;;;0.52;0.52;;;;;;;0.27;73.28;101119.19;5026574;28;20030;-68
2023/03/03 02:58:39;;;;;;;0.47;0.47;;;;;;;0.28;73.58;101133.69;5026431;28;20049;-68
2023/03/03 03:01:04;;;;;;;0.60;0.60;;;;;;;0.27;73.53;101130.28;5026670;28;20032;-69
2023/03/03 03:03:30;;;;;;;0.60;0.60;;;;;;;0.27;73.60;101134.50;5025542;28;20022;-68
2023/03/03 03:05:55;;;;;;;0.60;0.60;;;;;;;0.32;73.60;101133.91;5026618;28;20025;-68
2023/03/03 03:08:21;;;;;;;0.50;0.50;;;;;;;0.39;73.46;101127.38;5025050;28;20396;-68
2023/03/03 03:10:47;;;;;;;0.60;0.60;;;;;;;0.47;73.37;101135.41;5026340;28;20116;-69
2023/03/03 03:13:12;;;;;;;0.60;0.60;;;;;;;0.47;74.01;101132.84;5026312;28;20025;-68
2023/03/03 03:15:37;;;;;;;0.60;0.60;;;;;;;0.59;75.37;101137.63;5026413;28;20049;-69
2023/03/03 03:18:03;;;;;;;0.40;0.40;;;;;;;0.65;76.45;101132.78;5026094;28;20018;-68
2023/03/03 03:20:29;;;;;;;0.60;0.60;;;;;;;0.70;76.15;101127.88;5026257;28;20053;-69
2023/03/03 03:22:54;;;;;;;0.50;0.50;;;;;;;0.79;76.48;101130.84;5024825;28;20041;-69
2023/03/03 03:25:20;;;;;;;0.80;0.80;;;;;;;0.83;75.50;101132.72;5026190;28;20022;-69
2023/03/03 03:27:45;;;;;;;0.50;0.50;;;;;;;0.85;76.13;101127.66;5024539;28;20120;-68
2023/03/03 03:30:11;;;;;;;0.50;0.50;;;;;;;0.85;76.22;101122.53;5025923;28;20022;-68
2023/03/03 03:32:36;;;;;;;1.05;1.05;;;;;;;0.85;76.41;101120.88;5025934;28;20026;-68
2023/03/03 03:35:02;;;;;;;0.50;0.50;;;;;;;0.93;76.54;101118.66;5026015;28;20099;-69
2023/03/03 03:37:27;;;;;;;0.50;0.50;;;;;;;1.03;76.28;101117.34;5026006;28;20026;-69
2023/03/03 03:39:53;;;;;;;1.17;1.17;;;;;;;1.07;77.11;101101.31;5025448;28;20014;-68
2023/03/03 03:42:18;;;;;;;0.60;0.60;;;;;;;1.16;76.99;101105.97;5025766;28;20116;-69
2023/03/03 03:44:44;;;;;;;0.50;0.50;;;;;;;1.34;78.06;101110.94;5025712;28;20025;-68
2023/03/03 03:47:09;;;;;;;0.50;0.50;;;;;;;1.51;77.99;101095.41;5025641;28;20026;-68
2023/03/03 03:49:35;;;;;;;2.72;2.10;;;;;;;1.66;76.72;101099.41;5025524;28;20030;-68
2023/03/03 03:52:00;;;;;;;0.50;0.50;;;;;;;1.73;76.12;101102.25;5025634;28;20014;-70
2023/03/03 03:54:26;;;;;;;0.50;0.50;;;;;;;1.69;74.76;101100.38;5024283;28;20422;-69
2023/03/03 03:56:53;;;;;;;0.60;0.60;;;;;;;1.51;74.50;101087.75;5025528;28;20042;-70
2023/03/03 03:59:19;;;;;;;0.52;0.52;;;;;;;1.53;74.73;101096.38;5025509;28;20045;-70
2023/03/03 04:01:44;;;;;;;0.50;0.50;;;;;;;1.45;74.46;101090.91;5025477;28;20036;-70
2023/03/03 04:04:10;;;;;;;0.60;0.60;;;;;;;1.34;74.50;101092.19;5025495;28;20029;-70
2023/03/03 04:06:35;;;;;;;0.50;0.50;;;;;;;1.16;74.92;101080.38;5025421;28;20478;-69
2023/03/03 04:09:01;;;;;;;0.50;0.50;;;;;;;1.16;74.55;101090.63;5025318;28;20022;-69
2023/03/03 04:11:26;;;;;;;0.50;0.50;;;;;;;1.18;74.44;101096.66;5025175;28;20084;-69
2023/03/03 04:13:52;;;;;;;0.55;0.55;;;;;;;1.17;76.14;101094.91;5025102;28;20026;-69
2023/03/03 04:16:17;;;;;;;0.60;0.60;;;;;;;1.24;76.07;101098.59;5025176;28;20377;-69
2023/03/03 04:18:42;;;;;;;0.50;0.50;;;;;;;1.25;75.32;101094.38;5025083;28;20022;-69
2023/03/03 04:21:15;;;;;;;0.50;0.50;;;;;;;1.16;74.84;101095.72;5023827;28;20026;-69
2023/03/03 04:23:41;;;;;;;0.60;0.60;;;;;;;1.13;74.29;101094.72;5023807;28;20064;-69
2023/03/03 04:26:07;;;;;;;0.50;0.50;;;;;;;1.04;74.10;101097.78;5024801;28;20437;-69
2023/03/03 04:28:33;;;;;;;0.50;0.50;;;;;;;0.95;73.81;101094.03;5024650;28;20029;-68
2023/03/03 04:30:58;;;;;;;0.50;0.50;;;;;;;0.83;73.55;101088.41;5025048;28;20022;-69
2023/03/03 04:33:24;;;;;;;0.57;0.57;;;;;;;0.79;73.37;101097.59;5025026;28;20441;-68
2023/03/03 04:35:50;;;;;;;0.98;0.98;;;;;;;0.70;73.40;101100.63;5024810;28;20036;-68
2023/03/03 04:38:16;;;;;;;0.60;0.60;;;;;;;0.66;73.32;101097.88;5024796;28;20022;-68
2023/03/03 04:40:41;;;;;;;0.60;0.60;;;;;;;0.60;73.32;101096.81;5024775;28;20026;-69
2023/03/03 04:43:08;;;;;;;0.60;0.60;;;;;;;0.53;73.07;101093.94;5024796;28;20029;-70
2023/03/03 04:45:34;;;;;;;0.68;0.68;;;;;;;0.51;72.83;101095.53;5024808;28;20061;-68
2023/03/03 04:47:59;;;;;;;0.40;0.40;;;;;;;0.45;72.72;101096.13;5023180;28;20041;-70
2023/03/03 04:50:25;;;;;;;0.50;0.50;;;;;;;0.34;72.59;101091.41;5025203;28;20049;-69
2023/03/03 04:52:51;;;;;;;0.40;0.40;;;;;;;0.26;72.65;101097.00;5024517;28;20056;-70
2023/03/03 04:55:16;;;;;;;0.50;0.50;;;;;;;0.17;73.21;101083.00;5024471;28;20569;-68
2023/03/03 04:57:42;;;;;;;0.60;0.60;;;;;;;0.32;73.77;101080.25;5024543;28;20018;-69
2023/03/03 05:00:11;;;;;;;0.50;0.50;;;;;;;0.53;73.80;101078.59;5024671;28;20018;-69
2023/03/03 05:02:37;;;;;;;0.50;0.50;;;;;;;0.72;73.55;101073.47;5024504;28;20090;-68
2023/03/03 05:05:03;;;;;;;0.75;0.75;;;;;;;0.97;73.49;101069.41;5024431;28;20077;-68
2023/03/03 05:07:28;;;;;;;0.60;0.60;;;;;;;1.25;73.75;101069.66;5024369;28;20047;-65
2023/03/03 05:09:54;;;;;;;0.50;0.50;;;;;;;1.53;73.63;101057.97;5024267;28;20094;-66
2023/03/03 05:12:20;;;;;;;0.50;0.50;;;;;;;1.73;73.63;101058.75;5024194;28;20386;-68
2023/03/03 05:14:45;;;;;;;0.60;0.60;;;;;;;1.88;73.45;101044.78;5024207;28;20026;-67
2023/03/03 05:17:10;;;;;;;0.60;0.60;;;;;;;1.96;73.27;101051.06;5024333;28;20021;-68
2023/03/03 05:19:36;;;;;;;0.60;0.60;;;;;;;2.02;73.13;101052.09;5024184;28;20032;-67
2023/03/03 05:22:01;;;;;;;0.50;0.50;;;;;;;2.03;72.92;101048.72;5024175;28;20036;-68
2023/03/03 05:24:27;;;;;;;0.55;0.55;;;;;;;2.06;72.88;101051.41;5024515;28;20018;-68
2023/03/03 05:26:52;;;;;;;0.60;0.60;;;;;;;2.09;72.82;101056.63;5023898;28;20474;-67
2023/03/03 05:29:18;;;;;;;0.50;0.50;;;;;;;2.06;72.54;101046.28;5024721;28;20363;-68
2023/03/03 05:31:43;;;;;;;0.50;0.50;;;;;;;2.07;72.56;101050.56;5024447;28;20104;-69
2023/03/03 05:34:09;;;;;;;0.50;0.50;;;;;;;2.08;72.52;101048.06;5023093;28;20039;-66
2023/03/03 05:36:34;;;;;;;0.50;0.50;;;;;;;2.09;72.63;101042.13;5032674;28;20045;-67
2023/03/03 05:39:00;;;;;;;0.57;0.57;;;;;;;2.10;72.42;101046.44;5036043;28;20030;-64
2023/03/03 05:41:25;;;;;;;0.50;0.50;;;;;;;2.13;72.31;101048.25;5033998;28;20022;-63
2023/03/03 05:43:50;;;;;;;0.50;0.50;;;;;;;2.12;72.36;101033.69;5028557;28;20061;-65
2023/03/03 05:46:16;;;;;;;0.50;0.50;;;;;;;2.25;72.23;101044.38;5022618;28;20018;-65
2023/03/03 05:48:41;;;;;;;0.60;0.60;;;;;;;2.29;72.08;101039.44;5023305;28;20022;-65
2023/03/03 05:51:07;;;;;;;0.60;0.60;;;;;;;2.37;72.02;101052.50;5024240;28;20029;-64
2023/03/03 05:53:33;;;;;;;0.50;0.50;;;;;;;2.39;71.96;101045.75;5023871;28;20498;-64
2023/03/03 05:55:58;;;;;;;0.50;0.50;;;;;;;2.37;71.56;101041.38;5024167;28;20049;-65
2023/03/03 05:58:25;;;;;;;0.47;0.47;;;;;;;2.29;71.37;101047.09;5023727;28;20021;-65
2023/03/03 06:00:50;;;;;;;0.55;0.55;;;;;;;2.14;71.15;101047.41;5022761;28;20104;-65
2023/03/03 06:03:16;;;;;;;0.50;0.50;;;;;;;1.97;70.49;101052.81;5022658;28;20045;-65
2023/03/03 06:05:42;;;;;;;0.50;0.50;;;;;;;1.69;70.50;101040.66;5024038;28;20022;-65
2023/03/03 06:08:07;;;;;;;0.50;0.50;;;;;;;1.51;70.58;101045.91;5023664;28;20056;-65
2023/03/03 06:10:33;;;;;;;0.50;0.50;;;;;;;1.20;70.52;101056.66;5023620;28;20026;-66
2023/03/03 06:12:58;;;;;;;0.50;0.50;;;;;;;0.93;70.55;101052.16;5023854;28;20033;-67
2023/03/03 06:15:24;;;;;;;0.50;0.50;;;;;;;0.69;70.79;101054.56;5024063;28;20030;-66
2023/03/03 06:17:49;;;;;;;0.50;0.50;;;;;;;0.57;71.04;101054.91;5023816;28;20034;-67
2023/03/03 06:20:15;;;;;;;0.55;0.55;;;;;;;0.52;71.35;101054.72;5023961;28;20026;-68
2023/03/03 06:22:40;;;;;;;0.50;0.50;;;;;;;0.49;71.75;101047.81;5024137;28;20037;-66
2023/03/03 06:25:06;;;;;;;2.25;2.15;;;;;;;0.53;71.66;101042.81;5023693;28;20018;-68
2023/03/03 06:27:35;;;;;;;0.50;0.50;;;;;;;0.57;72.12;101040.47;5024080;28;20034;-67
2023/03/03 06:30:00;;;;;;;0.50;0.50;;;;;;;0.64;72.67;101038.16;5024249;28;20030;-67
2023/03/03 06:32:26;;;;;;;1.23;1.23;;;;;;;0.76;73.36;101030.13;5023910;28;20131;-67
2023/03/03 06:34:51;;;;;;;0.50;0.50;;;;;;;0.88;73.07;101027.22;5023742;28;20026;-67
2023/03/03 06:37:17;;;;;;;0.52;0.52;;;;;;;0.99;72.77;101024.28;5023643;28;20029;-67
2023/03/03 06:39:42;;;;;;;0.50;0.50;;;;;;;1.06;72.53;101014.31;5027001;28;20018;-67
2023/03/03 06:42:08;;;;;;;0.60;0.60;;;;;;;1.14;72.48;101012.94;5026923;28;20086;-67
2023/03/03 06:44:34;;;;;;;0.50;0.50;;;;;;;1.31;72.46;101021.28;5027390;28;20018;-66
2023/03/03 06:46:59;;;;;;;0.95;0.95;;;;;;;1.44;72.40;101016.63;5027299;28;20033;-67
2023/03/03 06:49:25;;;;;;;0.60;0.60;;;;;;;1.58;72.65;101017.19;5026642;28;20021;-67
2023/03/03 06:51:50;;;;;;;0.60;0.60;;;;;;;1.75;72.83;101006.72;5026791;28;20021;-66
2023/03/03 06:54:27;;;;;;;0.50;0.50;;;;;;;2.06;72.71;101018.09;5025450;28;20072;-66
2023/03/03 06:56:57;;;;;;;0.55;0.55;;;;;;;2.30;72.96;101018.09;5026730;28;20033;-67
2023/03/03 06:59:23;;;;;;;0.60;0.60;;;;;;;2.58;72.83;101010.50;5026747;28;20447;-66
2023/03/03 07:01:49;;;;;;;0.50;0.50;;;;;;;2.73;72.86;101005.88;5026699;28;20030;-65
2023/03/03 07:04:29;;;;;;;0.50;0.50;;;;;;;2.92;72.61;101003.06;5026732;28;20617;-65
2023/03/03 07:06:59;;;;;;;0.50;0.50;;;;;;;3.10;72.39;101005.34;5026744;28;20057;-67
2023/03/03 07:09:28;;;;;;;0.50;0.50;;;;;;;3.15;72.37;101010.63;5025320;28;20022;-66
2023/03/03 07:12:00;;;;;;;1.15;1.15;;;;;;;3.29;72.20;101011.09;5026627;28;20022;-66
2023/03/03 07:14:27;;;;;;;0.90;0.88;;;;;;;3.53;72.54;101017.81;5026489;28;20390;-65
2023/03/03 07:16:59;;;;;;;0.57;0.57;;;;;;;3.64;72.96;101013.00;5026646;28;20040;-65
2023/03/03 07:19:33;;;;;;;0.50;0.50;;;;;;;3.85;72.39;101015.31;5026535;28;20025;-66
2023/03/03 07:22:20;;;;;;;0.50;0.50;;;;;;;4.21;72.56;101008.63;5026532;28;20054;-66
2023/03/03 07:24:50;;;;;;;6.32;4.57;;;;;;;4.69;72.84;101004.75;5026439;28;20041;-66
2023/03/03 07:27:23;;;;;;;0.50;0.50;;;;;;;4.94;72.83;101000.19;5026314;28;20022;-66
2023/03/03 07:29:50;;;;;;;0.50;0.50;;;;;;;5.11;71.66;101006.59;5026139;28;20033;-66
2023/03/03 07:32:38;;;;;;;0.50;0.50;;;;;;;5.08;70.52;101007.38;5026211;28;20037;-66
2023/03/03 07:35:39;;;;;;;0.47;0.47;;;;;;;5.15;70.20;101009.28;5026327;28;20085;-66
2023/03/03 07:38:19;;;;;;;0.50;0.50;;;;;;;5.21;70.22;101006.84;5019410;28;20030;-65
2023/03/03 07:41:11;;;;;;;0.50;0.50;;;;;;;5.20;69.51;101001.66;5025818;28;20049;-65
2023/03/03 07:43:49;;;;;;;0.60;0.60;;;;;;;5.22;69.11;101002.56;5026219;28;20033;-66
2023/03/03 07:46:21;;;;;;;0.60;0.60;;;;;;;5.32;69.49;101004.50;5026233;28;20052;-67
2023/03/03 07:48:47;;;;;;;0.40;0.40;;;;;;;5.51;69.84;100998.91;5025365;28;20041;-66
2023/03/03 07:51:26;;;;;;;0.47;0.47;;;;;;;5.61;69.51;100990.53;5025998;28;20029;-66
2023/03/03 07:54:34;;;;;;;0.50;0.50;;;;;;;5.65;69.26;100988.91;5024287;28;20046;-65
2023/03/03 07:57:08;;;;;;;0.50;0.50;;;;;;;5.50;68.35;100994.56;5024314;28;20041;-65
2023/03/03 07:59:35;;;;;;;0.50;0.50;;;;;;;5.31;67.95;100981.31;5025787;28;20028;-65
2023/03/03 08:02:01;;;;;;;0.50;0.50;;;;;;;5.14;68.33;100975.78;5025704;28;20026;-67
2023/03/03 08:04:49;;;;;;;0.43;0.43;;;;;;;5.01;68.74;100975.50;5025659;28;20025;-66
2023/03/03 08:07:22;;;;;;;0.50;0.50;;;;;;;5.02;68.84;100973.75;5025783;28;20029;-66
2023/03/03 08:09:49;;;;;;;0.47;0.47;;;;;;;5.10;68.73;100972.25;5025584;28;20060;-66
2023/03/03 08:12:15;;;;;;;0.75;0.75;;;;;;;5.13;69.12;100969.75;5025585;28;20026;-66
2023/03/03 08:14:40;;;;;;;1.05;1.00;;;;;;;5.06;68.28;100962.72;5025460;28;20447;-66
2023/03/03 08:17:19;;;;;;;0.40;0.40;;;;;;;4.96;68.74;100953.91;5025566;28;20026;-66
2023/03/03 08:19:44;;;;;;;0.50;0.50;;;;;;;4.93;69.14;100956.41;5025269;28;20028;-66
2023/03/03 08:22:36;;;;;;;0.60;0.60;;;;;;;4.91;69.20;100958.97;5025505;28;20101;-66
2023/03/03 08:25:02;;;;;;;0.50;0.50;;;;;;;4.78;69.21;100950.06;5020783;28;20101;-65
2023/03/03 08:27:27;;;;;;;0.50;0.50;;;;;;;4.65;69.63;100938.59;5025129;28;20036;-65
2023/03/03 08:29:53;;;;;;;0.40;0.40;;;;;;;4.69;69.76;100944.69;5025054;28;20022;-65
2023/03/03 08:32:18;;;;;;;1.30;1.30;;;;;;;4.69;70.36;100945.59;5025238;28;20018;-65
2023/03/03 08:34:44;;;;;;;0.50;0.50;;;;;;;4.74;70.33;100949.97;5025311;28;20026;-65
2023/03/03 08:37:09;;;;;;;1.25;1.25;;;;;;;4.82;70.41;100948.44;5025174;28;20022;-65
2023/03/03 08:39:35;;;;;;;0.50;0.50;;;;;;;4.92;70.21;100947.81;5024973;28;20025;-65
2023/03/03 08:42:00;;;;;;;0.50;0.50;;;;;;;4.89;69.94;100942.59;5024842;28;20085;-66
2023/03/03 08:44:26;;;;;;;0.50;0.50;;;;;;;4.91;70.43;100940.94;5024867;28;20025;-66
2023/03/03 08:46:51;;;;;;;1.23;1.15;;;;;;;4.96;70.56;100926.50;5024969;28;20037;-66
2023/03/03 08:49:17;;;;;;;0.50;0.50;;;;;;;5.13;70.52;100931.13;5024823;28;20045;-65
2023/03/03 08:51:42;;;;;;;0.50;0.50;;;;;;;5.19;70.35;100928.69;5024835;28;20540;-65
2023/03/03 08:54:08;;;;;;;2.55;2.35;;;;;;;5.24;70.23;100921.06;5024633;28;20050;-65
2023/03/03 08:56:33;;;;;;;5.70;1.55;;;;;;;5.34;70.18;100922.16;5024381;28;20025;-65
2023/03/03 08:58:59;;;;;;;0.40;0.40;;;;;;;5.38;69.70;100921.41;5024448;28;20030;-65
2023/03/03 09:01:24;;;;;;;0.50;0.50;;;;;;;5.43;69.83;100924.06;5023887;28;20037;-66
2023/03/03 09:03:50;;;;;;;0.50;0.50;;;;;;;5.54;69.94;100909.69;5024655;28;20149;-65
2023/03/03 09:06:15;;;;;;;0.50;0.50;;;;;;;5.63;69.74;100908.13;5024646;28;20025;-66
2023/03/03 09:08:41;;;;;;;1.77;1.67;;;;;;;5.69;69.04;100896.25;5024489;28;20025;-66
2023/03/03 09:11:12;;;;;;;0.50;0.50;;;;;;;5.73;68.69;100898.88;5024366;28;20085;-65
2023/03/03 09:13:37;;;;;;;0.50;0.50;;;;;;;5.75;68.67;100892.06;5024658;28;20029;-65
2023/03/03 09:16:13;;;;;;;0.50;0.50;;;;;;;5.72;67.75;100886.88;5024552;28;20065;-66
2023/03/03 09:18:39;;;;;;;0.50;0.50;;;;;;;5.73;67.64;100889.47;5024539;28;20029;-65
2023/03/03 09:21:25;;;;;;;0.45;0.45;;;;;;;5.67;67.05;100886.78;5024514;28;20026;-66
2023/03/03 09:23:56;;;;;;;0.50;0.50;;;;;;;5.68;67.11;100881.66;5024531;28;20029;-66
2023/03/03 09:26:21;;;;;;;0.50;0.50;;;;;;;5.71;66.88;100880.81;5024394;28;20541;-65
2023/03/03 09:28:47;;;;;;;1.35;1.25;;;;;;;5.78;66.61;100886.97;5024277;28;20022;-65
2023/03/03 09:31:31;;;;;;;0.47;0.47;;;;;;;5.79;65.24;100883.53;5023175;28;20081;-65
2023/03/03 09:33:58;;;;;;;0.50;0.50;;;;;;;5.90;65.15;100871.75;5024470;28;20026;-66
2023/03/03 09:36:37;;;;;;;0.40;0.40;;;;;;;5.90;63.52;100871.75;5024654;28;20034;-65
2023/03/03 09:39:22;;;;;;;2.97;2.15;;;;;;;5.97;63.25;100872.72;5024193;28;20028;-66
2023/03/03 09:41:59;;;;;;;0.50;0.50;;;;;;;6.06;63.00;100864.31;5024251;28;20339;-66
2023/03/03 09:45:06;;;;;;;0.50;0.50;;;;;;;6.11;61.45;100862.69;5024328;28;20037;-65
2023/03/03 09:47:41;;;;;;;0.50;0.50;;;;;;;6.18;60.22;100861.09;4982507;28;20039;-67
2023/03/03 09:50:30;;;;;;;0.40;0.40;;;;;;;6.22;59.89;100867.16;4982636;28;20062;-65
2023/03/03 09:53:18;;;;;;;0.50;0.50;;;;;;;6.22;59.81;100860.28;4982338;28;20038;-66
2023/03/03 09:55:55;;;;;;;0.40;0.40;;;;;;;6.17;59.27;100854.19;4982527;28;20043;-64
2023/03/03 09:58:33;;;;;;;0.43;0.43;;;;;;;6.17;59.76;100852.47;4982273;28;20043;-64
2023/03/03 10:01:32;;;;;;;0.50;0.50;;;;;;;6.27;58.09;100857.78;4982558;28;20027;-65
2023/03/03 10:04:14;;;;;;;0.43;0.43;;;;;;;6.37;57.94;100853.66;4982595;28;20054;-64
2023/03/03 10:06:47;;;;;;;0.50;0.50;;;;;;;6.52;57.85;100842.69;4983142;28;20034;-64
2023/03/03 10:09:34;;;;;;;0.50;0.50;;;;;;;6.66;57.67;100838.63;4983199;28;20085;-65
2023/03/03 10:12:15;;;;;;;0.50;0.50;;;;;;;6.90;57.98;100844.97;4984782;28;20038;-65
2023/03/03 10:14:47;;;;;;;0.50;0.50;;;;;;;7.08;57.73;100830.59;4985858;28;20035;-64
2023/03/03 10:17:15;;;;;;;0.50;0.50;;;;;;;7.22;57.31;100817.84;4985598;28;20045;-65
2023/03/03 10:19:56;;;;;;;0.40;0.40;;;;;;;7.37;57.45;100819.75;4984961;28;20284;-65
2023/03/03 10:22:43;;;;;;;0.60;0.60;;;;;;;7.41;57.12;100818.91;4984728;28;20026;-65
2023/03/03 10:25:42;;;;;;;0.47;0.47;;;;;;;7.45;56.70;100822.41;5020625;28;20049;-65
2023/03/03 10:28:58;;;;;;;0.50;0.50;;;;;;;7.29;54.19;100827.41;5026396;28;20026;-65
2023/03/03 10:31:29;;;;;;;0.50;0.50;;;;;;;7.15;55.07;100821.19;4985685;28;20043;-64
2023/03/03 10:34:04;;;;;;;0.40;0.40;;;;;;;6.97;55.75;100824.41;4985760;28;20178;-65
2023/03/03 10:36:54;;;;;;;0.50;0.50;;;;;;;6.87;56.71;100820.84;4985744;28;20034;-65
2023/03/03 10:39:38;;;;;;;0.50;0.50;;;;;;;6.88;57.08;100822.56;4985447;28;20049;-65
2023/03/03 10:42:21;;;;;;;0.50;0.50;;;;;;;6.79;57.78;100813.84;4985721;28;20046;-65
2023/03/03 10:44:55;;;;;;;0.50;0.50;;;;;;;6.74;57.92;100810.34;4985664;28;20026;-64
2023/03/03 10:47:30;;;;;;;0.50;0.50;;;;;;;6.59;58.65;100804.97;4985501;28;20034;-65
2023/03/03 10:50:34;;;;;;;0.50;0.50;;;;;;;6.44;59.33;100799.59;4985169;28;20401;-65
2023/03/03 10:53:26;;;;;;;0.50;0.50;;;;;;;6.34;59.83;100792.59;4985252;28;20055;-65
2023/03/03 10:56:26;;;;;;;0.50;0.50;;;;;;;6.29;60.35;100789.91;4985342;28;20031;-65
2023/03/03 10:59:07;;;;;;;0.73;0.73;;;;;;;6.28;60.51;100789.88;4982178;28;20038;-65
2023/03/03 11:01:52;;;;;;;0.40;0.40;;;;;;;6.26;60.92;100786.44;4998670;28;20474;-65
2023/03/03 11:04:53;;;;;;;0.45;0.45;;;;;;;6.28;61.32;100780.44;5026740;28;20030;-65
2023/03/03 11:07:32;;;;;;;0.50;0.50;;;;;;;6.39;61.16;100766.88;5003756;28;20053;-65
2023/03/03 11:10:01;;;;;;;0.50;0.50;;;;;;;6.38;61.14;100758.25;5026318;28;20026;-65
2023/03/03 11:12:46;;;;;;;0.40;0.40;;;;;;;6.36;61.22;100764.25;5026512;28;20022;-65
2023/03/03 11:15:24;;;;;;;1.08;1.08;;;;;;;6.35;61.50;100759.91;5026711;28;20443;-65
2023/03/03 11:18:11;;;;;;;0.50;0.50;;;;;;;6.35;61.66;100753.06;5026647;28;20087;-65
2023/03/03 11:20:55;;;;;;;0.73;0.73;;;;;;;6.30;61.75;100744.38;5027293;28;20059;-64
2023/03/03 11:23:48;;;;;;;0.50;0.50;;;;;;;6.25;62.02;100746.00;5025841;28;20053;-64
2023/03/03 11:26:27;;;;;;;0.52;0.52;;;;;;;6.17;62.51;100736.47;5026194;28;20093;-66
2023/03/03 11:29:14;;;;;;;0.50;0.50;;;;;;;6.16;62.62;100728.69;5026315;28;20022;-65
2023/03/03 11:31:51;;;;;;;0.40;0.40;;;;;;;6.16;62.89;100728.69;5026384;28;20033;-65
2023/03/03 11:34:17;;;;;;;0.50;0.50;;;;;;;6.23;62.58;100724.50;5026241;28;20026;-66
2023/03/03 11:36:45;;;;;;;0.45;0.45;;;;;;;6.30;62.13;100718.59;5026524;28;20041;-67
2023/03/03 11:39:15;;;;;;;0.50;0.50;;;;;;;6.27;62.60;100710.81;5026075;28;20045;-65
2023/03/03 11:41:45;;;;;;;0.43;0.43;;;;;;;6.30;62.87;100716.00;5025976;28;20060;-65
2023/03/03 11:44:16;;;;;;;0.50;0.50;;;;;;;6.39;62.50;100716.13;5024720;28;20056;-65
2023/03/03 11:47:03;;;;;;;;;;;;;;;6.40;62.27;100707.56;5026504;28;20061;-65
2023/03/03 11:49:34;;;;;;;0.95;0.95;;;;;;;6.32;62.28;100701.44;5025745;28;19914;-65
2023/03/03 11:52:22;;;;;;;0.50;0.50;;;;;;;6.29;62.71;100688.50;5025892;28;20024;-65